54J

Defuniak Springs Airport

Defuniak Springs, Florida, USA
METAR K54J 172255Z AUTO 00000KT 10SM CLR 14/10 A3019 RMK AO2 T01430097
Observed Flight Rules
Nov-17 @ 22:55 UTC (40 minutes ago) Visual Flight Rules
Visibility Clouds
10 miles
  • Clear skies
Temperatures Readings
Current 14°C / 57°F
Dewpoint 10°C / 50°F
Humidity 77%
Altimeter 30.19" Hg
Pressure 1022 hPa
Elevation 88
METAR K54J 172255Z AUTO 00000KT 10SM CLR 14/10 A3019 RMK AO2 T01430097
Observed Flight Rules
Nov-17 @ 22:55 UTC
(40 minutes ago)
VFR
Clouds
  • Clear skies
Temperature Dewpoint
14°C / 57°F 10°C / 50°F
Humidity Altimeter Pressure
77% 30.19" Hg 1022 hPa